Nearby METAR Reports

 

EIDW - Dublin Airport, Ireland
Distance from station: ENE 79km
Updated: 17/11/2019 06:30
Mostly cloudy
Mostly cloudy
 Wind from WNW
Wind: WNW 15 km/h
Temperature: 0°C
Wind Chill: -4°C
Dew Point: -1°C
Humidity: 93%
Barometer: 1012 hPa
Clouds: Mostly cloudy
Visibility: 10 km
Cloud details: Few Clouds 671 m
Partly cloudy 1829 m
Mostly cloudy 3658 m
2019/11/17 06:30 EIDW 170630Z 29008KT 9999 FEW022 SCT060 BKN120 00/M01 Q1012 NOSIG
EIME - Casement (mil), Ireland
Distance from station: ENE 62km
Updated: 17/11/2019 06:00
Mostly cloudy
Mostly cloudy
 Wind from SW
Wind: SW 7 km/h
Temperature: 0°C
Wind Chill: -3°C
Dew Point: 0°C
Humidity: 100%
Barometer: 1011 hPa
Clouds: Mostly cloudy
Visibility: 10 km
Cloud details: Few Clouds 427 m
Mostly cloudy 4877 m
2019/11/17 06:00 EIME 170600Z 22004KT 9999 FEW014 BKN160 00/M00 Q1011
EIWF - Waterford Arpt, Ireland
Distance from station: S 111km
Updated: 16/11/2019 20:30
NOT Current
Clear
Clear
 Wind from N
Wind: N 7 km/h
Temperature: 2°C
Wind Chill: 0°C
Dew Point: 1°C
Humidity: 93%
Barometer: 1010 hPa
Summary: Clear
Visibility: greater than 10 km
2019/11/16 20:30 EIWF 162030Z 36004KT CAVOK 02/01 Q1010
 
EINN - Shannon Airport, Ireland
Distance from station: WSW 117km
Updated: 17/11/2019 06:30
Light drizzle, Mostly cloudy
Light drizzle, Mostly cloudy
 Wind from NW
Wind: NW 24 km/h
Temperature: 6°C
Wind Chill: 2°C
Dew Point: 5°C
Humidity: 93%
Barometer: 1013 hPa
Summary: Light Drizzle
Clouds: Mostly cloudy
Visibility: 10 km
Cloud details: Mostly cloudy 518 m
2019/11/17 06:30 EINN 170630Z 32013KT 9999 -DZ BKN017 06/05 Q1013 NOSIG
EIKN - Connaught Apt, Ireland
Distance from station: NW 127km
Updated: 17/11/2019 06:00
Mostly cloudy
Mostly cloudy
 Wind from NNW
Wind: NNW 28 km/h
Temperature: 5°C
Wind Chill: 1°C
Dew Point: 5°C
Humidity: 100%
Barometer: 1012 hPa
Clouds: Mostly cloudy
Visibility: 10 km
Cloud details: Partly cloudy 366 m
Mostly cloudy 671 m
Mostly cloudy 1219 m
2019/11/17 06:00 EIKN 170600Z 34015KT 310V010 9999 SCT012 BKN022 BKN040 05/05 Q1012 NOSIG
EISG - Sligo Arpt, Ireland
Distance from station: NNW 148km
Updated: 16/11/2019 17:00
NOT Current
Clear
Clear
 Wind from E
Wind: E 4 km/h
Temperature: 4°C
Dew Point: 4°C
Humidity: 100%
Barometer: 1009 hPa
Summary: Clear
Visibility: greater than 10 km
2019/11/16 17:00 EISG 161700Z 09002KT CAVOK 04/04 Q1009
 
EICK - Cork Arpt/Corcai, Ireland
Distance from station: SSW 165km
Updated: 17/11/2019 06:30
Mostly cloudy
Mostly cloudy
 Wind from NW
Wind: NW 20 km/h
Temperature: 4°C
Wind Chill: -1°C
Dew Point: 2°C
Humidity: 87%
Barometer: 1012 hPa
Clouds: Mostly cloudy
Visibility: 10 km
Cloud details: Partly cloudy 183 m
Mostly cloudy 366 m
2019/11/17 06:30 EICK 170630Z 32011KT 9999 SCT006 BKN012 04/02 Q1012 NOSIG
EGAA - Belfast/Aldergro, United Kingdom
Distance from station: NNE 179km
Updated: 17/11/2019 06:50
Clear
Clear
 Wind from WSW
Wind: WSW 4 km/h
Temperature: -1°C
Dew Point: -1°C
Humidity: 100%
Barometer: 1013 hPa
Summary: Clear
Visibility: greater than 10 km
2019/11/17 06:50 EGAA 170650Z 24002KT CAVOK M01/M01 Q1013
EIKY - Kerry Arpt, Ireland
Distance from station: SW 182km
Updated: 16/11/2019 19:30
NOT Current
Partly cloudy
Partly cloudy
 Wind from ENE
Wind: ENE 6 km/h
Temperature: 5°C
Dew Point: 3°C
Humidity: 87%
Barometer: 1009 hPa
Clouds: Partly cloudy
Visibility: 10 km
Cloud details: Few Clouds 1250 m
Partly cloudy 1433 m
2019/11/16 19:30 EIKY 161930Z 06003KT 9999 FEW041 SCT047 05/03 Q1009
 
EGAC - Belfast Harbour, United Kingdom
Distance from station: NNE 188km
Updated: 17/11/2019 06:50
Clear
Clear
 Wind from SSE
Wind: SSE 6 km/h
Temperature: 1°C
Dew Point: 1°C
Humidity: 100%
Barometer: 1013 hPa
Clouds: Clear
Visibility: 10 km
2019/11/17 06:50 EGAC 170650Z AUTO 16003KT 9999 NCD 01/01 Q1013
EGOV - Valley Raf, United Kingdom
Distance from station: E 188km
Updated: 17/11/2019 05:50
Mostly cloudy
Mostly cloudy
 Wind from WNW
Wind: WNW 11 km/h
Temperature: 7°C
Wind Chill: 5°C
Dew Point: 5°C
Humidity: 87%
Barometer: 1010 hPa
Clouds: Mostly cloudy
Visibility: 10 km
Cloud details: Partly cloudy 610 m
Partly cloudy 1341 m
Mostly cloudy 1524 m
2019/11/17 05:50 EGOV 170550Z AUTO 29006KT 9999 SCT020/// SCT044/// BKN050/// 07/05 Q1010 RERA
EGNS - Isle Of Man/Rona, United Kingdom
Distance from station: ENE 207km
Updated: 17/11/2019 05:50
Few Clouds
Few Clouds
 Wind from NW
Wind: NW 7 km/h
Temperature: 6°C
Wind Chill: 4°C
Dew Point: 4°C
Humidity: 87%
Barometer: 1011 hPa
Clouds: Few Clouds
Visibility: 10 km
Cloud details: Few Clouds 1067 m
2019/11/17 05:50 EGNS 170550Z 32004KT 9999 FEW035 06/04 Q1011 NOSIG